Time;durP1;ratioP1;P1;durP2;ratioP2;P2;SDS_P1;SDS_P2;PMS_P1;PMS_P2;Temp;Humidity;BMP_temperature;BMP_pressure;BME280_temperature;BME280_humidity;BME280_pressure;Samples;Min_cycle;Max_cycle;Signal;HPM_P1;HPM_P2
2022/06/02 00:00:43;;;;;;;;;;;9.60;99.90;;;;;;5051531;28;20052;-87
2022/06/02 00:03:22;;;;;;;10.40;7.63;;;9.60;99.90;;;;;;5035244;28;19970;-86
2022/06/02 00:05:52;;;;;;;10.30;7.97;;;10.20;99.90;;;;;;5051486;28;20080;-87
2022/06/02 00:08:30;;;;;;;9.68;7.18;;;9.60;99.90;;;;;;5051350;28;20078;-87
2022/06/02 00:11:05;;;;;;;11.75;8.05;;;9.60;99.90;;;;;;5051112;28;20057;-88
2022/06/02 00:13:41;;;;;;;9.48;7.43;;;9.50;99.90;;;;;;5051601;28;20087;-88
2022/06/02 00:16:17;;;;;;;9.73;7.38;;;9.50;99.90;;;;;;5035441;28;20516;-86
2022/06/02 00:18:55;;;;;;;9.27;7.05;;;9.50;99.90;;;;;;5051646;28;20719;-86
2022/06/02 00:21:39;;;;;;;11.32;6.60;;;9.40;99.90;;;;;;5051538;28;20041;-86
2022/06/02 00:24:27;;;;;;;9.65;6.30;;;9.30;99.90;;;;;;5051233;28;20566;-86
2022/06/02 00:27:21;;;;;;;8.32;6.75;;;9.20;99.90;;;;;;5051745;28;20098;-87
2022/06/02 00:29:50;;;;;;;8.88;6.90;;;9.10;99.90;;;;;;5051617;28;20044;-88
2022/06/02 00:32:51;;;;;;;11.35;7.80;;;9.10;99.90;;;;;;5052544;28;20087;-86
2022/06/02 00:35:36;;;;;;;9.80;8.48;;;9.10;99.90;;;;;;5052442;28;20124;-87
2022/06/02 00:38:18;;;;;;;12.32;8.63;;;9.00;99.90;;;;;;5060692;28;20041;-87
2022/06/02 00:40:45;;;;;;;10.40;8.75;;;9.10;99.90;;;;;;5051922;28;20056;-86
2022/06/02 00:43:30;;;;;;;11.25;9.15;;;9.00;99.90;;;;;;5051937;28;20063;-87
2022/06/02 00:46:32;;;;;;;11.88;9.52;;;9.00;99.90;;;;;;5051205;28;20382;-87
2022/06/02 00:49:14;;;;;;;14.07;9.57;;;8.90;99.90;;;;;;5021231;28;20098;-87
2022/06/02 00:51:45;;;;;;;12.63;10.18;;;9.00;99.90;;;;;;5051123;28;20063;-88
2022/06/02 00:57:45;;;;;;;14.65;10.05;;;8.90;99.90;;;;;;5051541;28;20048;-85
2022/06/02 01:00:20;;;;;;;12.82;9.73;;;8.80;99.90;;;;;;5051526;28;20033;-87
2022/06/02 01:03:11;;;;;;;12.70;9.80;;;8.80;99.90;;;;;;5034422;28;20124;-86
2022/06/02 01:05:56;;;;;;;13.40;10.23;;;8.80;99.90;;;;;;5034361;28;20090;-87
2022/06/02 01:08:34;;;;;;;11.98;9.30;;;8.80;99.90;;;;;;5034965;28;20511;-87
2022/06/02 01:11:38;;;;;;;12.20;9.45;;;8.70;99.90;;;;;;5034235;28;20102;-87
2022/06/02 01:14:26;;;;;;;36.17;9.38;;;8.70;99.90;;;;;;5013976;28;20520;-86
2022/06/02 01:17:36;;;;;;;24.45;7.30;;;8.60;99.90;;;;;;5014466;28;20045;-86
2022/06/02 01:20:23;;;;;;;14.82;8.10;;;8.50;99.90;;;;;;5030506;28;20045;-86
2022/06/02 01:23:22;;;;;;;10.15;8.10;;;8.50;99.90;;;;;;5018172;28;20056;-86
2022/06/02 01:26:27;;;;;;;10.55;8.38;;;8.50;99.90;;;;;;5041566;28;20059;-87
2022/06/02 01:29:19;;;;;;;14.43;9.90;;;8.50;99.90;;;;;;5035521;28;20497;-87
2022/06/02 01:31:51;;;;;;;9.95;8.95;;;8.40;99.90;;;;;;5034579;28;20041;-87
2022/06/02 01:34:26;;;;;;;11.82;9.38;;;8.40;99.90;;;;;;5034817;28;20038;-86
2022/06/02 01:37:21;;;;;;;12.35;9.57;;;8.40;99.90;;;;;;5034716;28;20045;-87
2022/06/02 01:39:54;;;;;;;12.25;10.02;;;8.40;99.90;;;;;;5035063;28;20064;-87
2022/06/02 01:42:39;;;;;;;13.55;10.52;;;8.40;99.90;;;;;;5034558;28;20042;-86
2022/06/02 01:45:38;;;;;;;14.20;10.13;;;8.40;99.90;;;;;;5035030;28;20049;-87
2022/06/02 01:48:23;;;;;;;13.50;10.50;;;8.40;99.90;;;;;;5007012;28;20494;-86
2022/06/02 01:51:07;;;;;;;14.88;11.15;;;8.40;99.90;;;;;;5034630;28;20041;-86
2022/06/02 01:54:10;;;;;;;12.05;10.43;;;8.40;99.90;;;;;;5034424;28;20513;-86
2022/06/02 01:56:59;;;;;;;13.38;10.00;;;8.40;99.90;;;;;;5034260;28;20041;-87
2022/06/02 01:59:59;;;;;;;12.43;10.00;;;8.40;99.90;;;;;;5028947;28;20041;-87
2022/06/02 02:02:44;;;;;;;13.02;9.82;;;8.30;99.90;;;;;;5034347;28;20086;-86
2022/06/02 02:05:32;;;;;;;11.85;9.27;;;8.40;99.90;;;;;;5034493;28;20044;-86
2022/06/02 02:08:17;;;;;;;11.45;9.77;;;8.30;99.90;;;;;;5017407;28;20045;-86
2022/06/02 02:11:01;;;;;;;13.73;9.77;;;8.30;99.90;;;;;;5034078;28;20057;-86
2022/06/02 02:13:48;;;;;;;11.02;9.52;;;8.30;99.90;;;;;;5018073;28;20050;-87
2022/06/02 02:16:26;;;;;;;11.77;10.10;;;8.30;99.90;;;;;;5017935;28;20481;-86
2022/06/02 02:19:04;;;;;;;14.73;10.20;;;8.30;99.90;;;;;;5034016;28;20101;-86
2022/06/02 02:21:56;;;;;;;10.32;8.38;;;8.30;99.90;;;;;;5033964;28;20179;-88
2022/06/02 02:25:00;;;;;;;11.98;10.00;;;8.30;99.90;;;;;;5017550;28;20044;-87
2022/06/02 02:27:25;;;;;;;11.45;9.25;;;8.30;99.90;;;;;;5017044;28;20041;-87
2022/06/02 02:30:04;;;;;;;11.33;9.63;;;8.60;99.90;;;;;;5033746;28;20056;-87
2022/06/02 02:32:55;;;;;;;11.50;9.38;;;8.20;99.90;;;;;;5043591;28;20092;-86
2022/06/02 02:35:38;;;;;;;12.10;10.20;;;8.30;99.90;;;;;;5018743;28;20042;-86
2022/06/02 02:38:16;;;;;;;13.18;9.98;;;8.20;99.90;;;;;;5033668;28;20036;-87
2022/06/02 02:40:51;;;;;;;12.48;10.02;;;8.20;99.90;;;;;;5033217;28;20044;-88
2022/06/02 02:43:29;;;;;;;12.48;9.85;;;8.20;99.90;;;;;;5017193;28;20044;-87
2022/06/02 02:46:17;;;;;;;14.10;10.00;;;8.20;99.90;;;;;;5033090;28;20069;-86
2022/06/02 02:48:59;;;;;;;11.82;10.48;;;8.20;99.90;;;;;;5017049;28;20560;-87
2022/06/02 02:51:49;;;;;;;12.52;9.85;;;8.10;99.90;;;;;;5033984;28;20437;-87
2022/06/02 02:54:37;;;;;;;10.98;9.52;;;8.10;99.90;;;;;;5033366;28;20045;-87
2022/06/02 02:57:24;;;;;;;14.05;11.27;;;8.10;99.90;;;;;;5033291;28;20037;-87
2022/06/02 03:00:25;;;;;;;11.95;10.10;;;8.10;99.90;;;;;;5033316;28;20043;-87
2022/06/02 03:03:25;;;;;;;12.13;10.02;;;8.10;99.90;;;;;;5000486;28;20048;-87
2022/06/02 03:06:20;;;;;;;12.65;10.88;;;8.00;99.90;;;;;;5033145;28;20064;-88
2022/06/02 03:09:09;;;;;;;13.93;9.80;;;8.00;99.90;;;;;;5031630;28;20072;-87
2022/06/02 03:11:58;;;;;;;12.60;10.48;;;7.90;99.90;;;;;;5016101;28;20053;-87
2022/06/02 03:14:27;;;;;;;14.02;10.57;;;7.90;99.90;;;;;;5016537;28;20045;-86
2022/06/02 03:17:02;;;;;;;16.08;11.57;;;8.40;99.90;;;;;;5032639;28;20445;-87
2022/06/02 03:19:50;;;;;;;14.68;11.55;;;7.80;99.90;;;;;;5016845;28;20084;-87
2022/06/02 03:22:27;;;;;;;14.57;10.40;;;7.80;99.90;;;;;;5033118;28;20457;-86
2022/06/02 03:25:06;;;;;;;14.38;10.32;;;7.80;99.90;;;;;;5015964;28;20072;-86
2022/06/02 03:27:37;;;;;;;14.10;10.38;;;8.00;99.90;;;;;;5032710;28;20033;-86
2022/06/02 03:30:11;;;;;;;13.27;10.93;;;7.80;99.90;;;;;;5032378;28;20049;-86
2022/06/02 03:32:55;;;;;;;14.65;11.57;;;7.70;99.90;;;;;;5035968;28;20079;-87
2022/06/02 03:35:39;;;;;;;13.65;11.00;;;7.80;99.90;;;;;;5035913;28;21026;-87
2022/06/02 03:38:27;;;;;;;15.55;11.40;;;7.80;99.90;;;;;;5052527;28;20044;-87
2022/06/02 03:41:22;;;;;;;;;;;7.80;99.90;;;;;;5035355;28;20033;-86
2022/06/02 03:44:03;;;;;;;15.98;11.40;;;7.80;99.90;;;;;;5038560;28;19920;-86
2022/06/02 03:46:47;;;;;;;14.38;11.40;;;7.70;99.90;;;;;;5051692;28;20037;-87
2022/06/02 03:49:15;;;;;;;12.90;11.05;;;7.70;99.90;;;;;;5051738;28;20060;-87
2022/06/02 03:52:06;;;;;;;18.45;12.52;;;7.70;99.90;;;;;;5049949;28;20037;-85
2022/06/02 03:55:05;;;;;;;14.98;11.77;;;7.70;99.90;;;;;;5051771;28;20041;-86
2022/06/02 03:57:51;;;;;;;14.25;10.85;;;7.80;99.90;;;;;;5049504;28;20041;-85
2022/06/02 04:00:53;;;;;;;14.10;11.50;;;7.70;99.90;;;;;;5040333;28;20073;-87
2022/06/02 04:03:44;;;;;;;17.73;13.10;;;7.80;99.90;;;;;;5004242;28;20386;-86
2022/06/02 04:06:25;;;;;;;14.02;11.52;;;7.90;99.90;;;;;;5031682;28;20095;-86
2022/06/02 04:09:22;;;;;;;15.85;12.90;;;7.90;99.90;;;;;;5031820;28;20077;-85
2022/06/02 04:15:46;;;;;;;15.73;11.60;;;7.90;99.90;;;;;;5047940;28;20124;-87
2022/06/02 04:18:27;;;;;;;16.00;11.55;;;8.00;99.90;;;;;;5015107;28;20136;-86
2022/06/02 04:21:00;;;;;;;15.05;12.02;;;8.00;99.90;;;;;;5031801;28;20150;-87
2022/06/02 04:23:50;;;;;;;14.80;11.70;;;8.60;99.90;;;;;;5015514;28;20099;-86
2022/06/02 04:26:23;;;;;;;15.38;11.18;;;8.00;99.90;;;;;;5031993;28;20405;-86
2022/06/02 04:29:20;;;;;;;14.52;11.25;;;8.00;99.90;;;;;;5049167;28;20048;-86
2022/06/02 04:32:16;;;;;;;16.70;11.68;;;8.00;99.90;;;;;;5050767;28;20750;-85
2022/06/02 04:34:53;;;;;;;15.48;11.40;;;8.00;99.90;;;;;;5056506;28;20048;-85
2022/06/02 04:37:19;;;;;;;13.98;11.55;;;8.10;99.90;;;;;;5056306;28;20072;-86
2022/06/02 04:40:03;;;;;;;15.57;11.90;;;8.50;99.90;;;;;;5034763;28;20397;-85
2022/06/02 04:42:47;;;;;;;13.88;11.13;;;8.20;99.90;;;;;;5051061;28;20489;-86
2022/06/02 04:45:21;;;;;;;12.75;10.65;;;8.20;99.90;;;;;;5034869;28;20041;-86
2022/06/02 04:47:49;;;;;;;15.85;10.55;;;8.30;99.90;;;;;;5051187;28;20048;-86
2022/06/02 04:50:32;;;;;;;14.02;10.80;;;8.40;99.90;;;;;;5034538;28;20436;-87
2022/06/02 04:53:36;;;;;;;14.93;10.93;;;8.40;99.90;;;;;;5051067;28;20081;-86
2022/06/02 04:56:17;;;;;;;14.65;10.55;;;8.50;99.90;;;;;;5031255;28;20041;-86
2022/06/02 04:59:13;;;;;;;12.13;10.40;;;8.60;99.90;;;;;;5055084;28;20048;-86
2022/06/02 05:02:00;;;;;;;12.88;10.13;;;8.70;99.90;;;;;;5055070;28;20041;-86
2022/06/02 05:05:13;;;;;;;12.50;9.60;;;8.70;99.90;;;;;;5038914;28;20045;-87
2022/06/02 05:08:18;;;;;;;12.10;9.40;;;8.80;99.90;;;;;;5046043;28;20056;-87
2022/06/02 05:10:59;;;;;;;10.77;9.30;;;9.00;99.90;;;;;;5053897;28;20053;-87
2022/06/02 05:13:56;;;;;;;11.82;9.20;;;9.10;99.90;;;;;;5038888;28;20485;-86
2022/06/02 05:16:24;;;;;;;10.10;8.75;;;9.20;99.90;;;;;;5055008;28;20132;-86
2022/06/02 05:19:05;;;;;;;10.57;7.70;;;9.40;99.90;;;;;;5054790;28;20041;-86
2022/06/02 05:21:46;;;;;;;10.23;8.25;;;9.50;99.90;;;;;;5038045;28;20040;-86
2022/06/02 05:24:34;;;;;;;12.55;7.93;;;9.60;99.90;;;;;;5054689;28;20053;-87
2022/06/02 05:27:22;;;;;;;9.70;7.50;;;9.80;99.90;;;;;;5058741;28;20098;-86
2022/06/02 05:30:00;;;;;;;9.13;6.53;;;10.00;99.90;;;;;;5037807;28;20531;-87
2022/06/02 05:33:10;;;;;;;12.15;6.78;;;10.30;99.90;;;;;;5054404;28;20095;-86
2022/06/02 05:35:45;;;;;;;8.95;6.18;;;10.50;99.90;;;;;;5007848;28;20061;-86
2022/06/02 05:38:49;;;;;;;9.10;6.18;;;10.70;99.90;;;;;;5038259;28;20041;-87
2022/06/02 05:41:27;;;;;;;6.43;4.72;;;11.00;99.90;;;;;;5037902;28;20041;-86
2022/06/02 05:44:11;;;;;;;6.15;4.50;;;11.20;99.90;;;;;;5056655;28;20036;-86
2022/06/02 05:46:59;;;;;;;8.93;4.68;;;11.40;99.90;;;;;;5054871;28;20051;-87
2022/06/02 05:49:43;;;;;;;5.38;4.13;;;11.50;99.90;;;;;;5058925;28;20052;-89
2022/06/02 05:52:22;;;;;;;5.82;4.45;;;11.80;99.90;;;;;;5038783;28;20041;-87
2022/06/02 05:55:00;;;;;;;4.80;3.58;;;11.90;99.90;;;;;;5054659;28;20052;-86
2022/06/02 05:57:44;;;;;;;4.63;3.25;;;12.30;99.90;;;;;;5054503;28;20037;-86
2022/06/02 06:00:25;;;;;;;7.60;3.00;;;12.50;99.90;;;;;;5054409;28;20041;-86
2022/06/02 06:03:29;;;;;;;5.63;3.25;;;13.10;99.90;;;;;;5059017;28;20052;-87
2022/06/02 06:06:12;;;;;;;2.60;2.40;;;13.50;99.90;;;;;;5052537;28;20041;-87
2022/06/02 06:08:50;;;;;;;3.92;2.60;;;13.90;99.90;;;;;;5054213;28;20171;-87
2022/06/02 06:11:35;;;;;;;3.05;2.33;;;14.40;99.90;;;;;;5057297;28;20056;-87
2022/06/02 06:14:14;;;;;;;5.75;2.10;;;14.60;99.90;;;;;;5054114;28;20123;-87
2022/06/02 06:16:56;;;;;;;5.05;2.10;;;14.80;99.90;;;;;;5053582;28;20099;-87
2022/06/02 06:19:32;;;;;;;3.33;2.40;;;15.00;99.90;;;;;;5055989;28;20068;-87
2022/06/02 06:22:24;;;;;;;4.60;2.10;;;14.90;99.90;;;;;;5062963;28;20057;-87
2022/06/02 06:25:18;;;;;;;5.13;2.15;;;14.80;99.90;;;;;;5038313;28;20508;-87
2022/06/02 06:28:16;;;;;;;2.42;1.88;;;14.80;99.90;;;;;;5043697;28;20444;-87
2022/06/02 06:31:05;;;;;;;3.15;1.63;;;15.00;99.90;;;;;;5041265;28;20059;-86
2022/06/02 06:33:58;;;;;;;3.53;1.70;;;15.30;99.90;;;;;;5059636;28;20037;-87
2022/06/02 06:36:45;;;;;;;2.65;1.63;;;15.70;99.90;;;;;;5053566;28;20043;-87
2022/06/02 06:39:23;;;;;;;4.47;1.50;;;15.70;99.90;;;;;;5058590;28;20460;-87
2022/06/02 06:42:07;;;;;;;4.00;1.40;;;15.50;99.90;;;;;;5058618;28;20048;-87
2022/06/02 06:44:44;;;;;;;2.42;1.48;;;15.60;99.90;;;;;;5054245;28;20560;-86
2022/06/02 06:47:45;;;;;;;4.03;1.45;;;16.10;99.90;;;;;;5053822;28;20076;-87
2022/06/02 06:50:28;;;;;;;3.17;1.30;;;15.90;99.90;;;;;;5034870;28;20053;-86
2022/06/02 06:53:16;;;;;;;2.95;1.08;;;15.70;99.90;;;;;;5036826;28;20033;-87
2022/06/02 06:55:59;;;;;;;3.55;0.95;;;15.80;99.90;;;;;;5036874;28;20037;-86
2022/06/02 06:58:42;;;;;;;1.92;0.80;;;15.90;99.90;;;;;;5054025;28;20409;-86
2022/06/02 07:01:18;;;;;;;2.28;1.08;;;16.10;99.90;;;;;;5036851;28;20408;-86
2022/06/02 07:04:11;;;;;;;1.95;0.90;;;16.30;99.90;;;;;;5052605;28;20052;-86
2022/06/02 07:07:20;;;;;;;2.42;1.20;;;16.70;99.90;;;;;;5053026;28;20086;-88
2022/06/02 07:09:52;;;;;;;4.90;1.00;;;16.70;99.90;;;;;;5031178;28;20412;-85
2022/06/02 07:15:33;;;;;;;2.42;1.30;;;16.40;99.90;;;;;;5056284;28;20052;-86
2022/06/02 07:18:33;;;;;;;3.15;1.40;;;16.20;99.90;;;;;;5056348;28;20407;-86
2022/06/02 07:21:16;;;;;;;4.35;1.38;;;16.00;99.90;;;;;;5056189;28;20123;-86
2022/06/02 07:23:53;;;;;;;3.92;1.50;;;15.70;99.90;;;;;;5039455;28;20036;-87
2022/06/02 07:26:57;;;;;;;2.63;1.13;;;15.70;99.90;;;;;;5039966;28;20396;-87
2022/06/02 07:29:35;;;;;;;2.42;1.35;;;16.00;99.90;;;;;;5016956;28;20059;-87
2022/06/02 07:32:31;;;;;;;5.00;1.50;;;16.30;99.90;;;;;;5038274;28;20036;-87
2022/06/02 07:35:13;;;;;;;4.45;1.30;;;16.20;99.90;;;;;;5057802;28;20104;-86
2022/06/02 07:38:06;;;;;;;3.50;1.30;;;15.90;99.90;;;;;;5040811;28;20044;-86
2022/06/02 07:40:42;;;;;;;3.90;1.40;;;15.60;99.90;;;;;;5056004;28;20123;-85
2022/06/02 07:43:26;;;;;;;3.60;1.40;;;15.60;99.90;;;;;;5056366;28;20048;-85
2022/06/02 07:46:09;;;;;;;4.30;1.20;;;15.50;99.90;;;;;;5060666;28;20286;-86
2022/06/02 07:49:29;;;;;;;3.83;1.45;;;15.40;99.90;;;;;;5039091;28;20080;-87
2022/06/02 07:52:05;;;;;;;4.45;1.40;;;15.80;99.90;;;;;;4983033;28;20046;-86
2022/06/02 07:54:43;;;;;;;2.92;1.10;;;16.40;99.90;;;;;;5047794;28;20051;-87
2022/06/02 07:57:33;;;;;;;3.55;1.30;;;16.70;99.90;;;;;;5039104;28;20404;-86
2022/06/02 08:00:13;;;;;;;3.75;1.08;;;16.80;99.90;;;;;;5039116;28;20484;-87
2022/06/02 08:02:44;;;;;;;2.97;1.20;;;16.30;99.90;;;;;;5055886;28;20125;-87
2022/06/02 08:05:19;;;;;;;1.85;1.05;;;16.10;99.90;;;;;;5055839;28;20047;-87
2022/06/02 08:07:53;;;;;;;2.92;1.00;;;16.10;99.90;;;;;;5038943;28;20378;-87
2022/06/02 08:10:52;;;;;;;2.90;0.90;;;16.30;99.90;;;;;;5055519;28;20405;-87
2022/06/02 08:13:29;;;;;;;2.65;1.10;;;16.50;99.90;;;;;;5052341;28;20083;-86
2022/06/02 08:16:06;;;;;;;4.00;1.13;;;16.60;99.90;;;;;;5055178;28;20046;-86
2022/06/02 08:19:00;;;;;;;2.20;1.08;;;16.80;99.90;;;;;;5038643;28;20500;-87
2022/06/02 08:21:38;;;;;;;1.85;0.70;;;17.30;99.90;;;;;;5055204;28;20051;-87
2022/06/02 08:24:32;;;;;;;1.67;1.30;;;17.50;99.90;;;;;;5038331;28;20040;-86
2022/06/02 08:27:48;;;;;;;2.55;1.02;;;18.00;99.90;;;;;;5055564;28;20048;-86
2022/06/02 08:30:26;;;;;;;3.58;1.30;;;18.00;99.90;;;;;;5033980;28;20071;-87
2022/06/02 08:33:04;;;;;;;2.50;1.10;;;17.80;99.90;;;;;;5055144;28;20492;-86
2022/06/02 08:35:39;;;;;;;3.88;1.10;;;17.70;99.90;;;;;;5055635;28;20041;-87
2022/06/02 08:38:11;;;;;;;2.70;1.13;;;17.60;99.90;;;;;;5055095;28;20127;-87
2022/06/02 08:41:29;;;;;;;1.95;1.33;;;17.50;99.90;;;;;;5055099;28;20032;-87
2022/06/02 08:43:54;;;;;;;1.83;0.70;;;17.80;99.90;;;;;;5054427;28;20082;-86
2022/06/02 08:46:50;;;;;;;4.80;0.95;;;18.40;99.90;;;;;;5063049;28;20090;-86
2022/06/02 08:49:19;;;;;;;4.43;1.05;;;18.70;99.90;;;;;;5055420;28;20102;-86
2022/06/02 08:52:23;;;;;;;2.90;0.90;;;18.60;99.90;;;;;;5041809;28;20393;-87
2022/06/02 08:55:26;;;;;;;2.17;0.85;;;18.30;99.90;;;;;;5054847;28;20051;-86
2022/06/02 08:58:19;;;;;;;3.60;0.93;;;18.10;99.90;;;;;;5054616;28;20041;-85
2022/06/02 09:00:57;;;;;;;2.42;1.00;;;17.90;99.90;;;;;;5038157;28;20040;-86
2022/06/02 09:03:53;;;;;;;2.80;0.75;;;18.00;99.90;;;;;;5055199;28;20037;-86
2022/06/02 09:06:33;;;;;;;3.28;0.85;;;18.40;99.90;;;;;;5038813;28;20788;-87
2022/06/02 09:09:30;;;;;;;4.43;1.00;;;19.00;99.90;;;;;;5038311;28;20033;-87
2022/06/02 09:12:04;;;;;;;2.15;1.00;;;19.30;99.90;;;;;;5038158;28;20063;-87
2022/06/02 09:15:04;;;;;;;3.08;1.15;;;19.10;99.90;;;;;;5060802;28;20102;-87
2022/06/02 09:17:51;;;;;;;2.03;0.82;;;18.90;99.90;;;;;;5031728;28;20127;-87
2022/06/02 09:21:02;;;;;;;3.67;0.90;;;19.00;99.90;;;;;;5038193;28;20036;-85
2022/06/02 09:23:45;;;;;;;3.03;0.80;;;19.30;99.90;;;;;;5015326;28;20114;-85
2022/06/02 09:26:33;;;;;;;1.65;0.70;;;19.60;99.90;;;;;;5038482;28;20577;-86
2022/06/02 09:29:18;;;;;;;2.22;0.80;;;20.00;99.90;;;;;;5054337;28;20048;-86
2022/06/02 09:31:59;;;;;;;3.78;0.90;;;20.40;99.90;;;;;;5037868;28;20051;-87
2022/06/02 09:34:49;;;;;;;3.95;0.80;;;20.80;99.90;;;;;;5038084;28;20037;-86
2022/06/02 09:37:50;;;;;;;4.38;0.90;;;21.30;99.90;;;;;;5054774;28;20059;-86
2022/06/02 09:40:49;;;;;;;3.50;0.90;;;21.30;99.90;;;;;;5039364;28;20040;-87
2022/06/02 09:43:18;;;;;;;2.65;0.80;;;20.90;99.90;;;;;;5058901;28;20480;-87
2022/06/02 09:46:17;;;;;;;4.32;0.98;;;20.40;99.90;;;;;;5058083;28;20037;-87
2022/06/02 09:49:27;;;;;;;2.35;0.80;;;20.20;99.90;;;;;;5058105;28;20040;-87
2022/06/02 09:52:15;;;;;;;2.72;0.70;;;20.40;99.90;;;;;;5040930;28;20079;-86
2022/06/02 09:55:01;;;;;;;1.83;0.88;;;21.00;99.90;;;;;;5063073;28;20045;-87
2022/06/02 09:57:57;;;;;;;1.73;0.60;;;21.30;99.90;;;;;;5061249;28;20127;-87
2022/06/02 10:00:32;;;;;;;4.45;0.98;;;21.30;99.90;;;;;;5057982;28;20036;-87
2022/06/02 10:03:16;;;;;;;1.60;0.98;;;21.10;99.90;;;;;;5057773;28;20102;-87
2022/06/02 10:06:04;;;;;;;2.17;1.10;;;20.90;99.90;;;;;;5057230;28;20231;-86
2022/06/02 10:09:07;;;;;;;2.25;0.90;;;20.50;99.90;;;;;;5059382;28;20071;-86
2022/06/02 10:15:13;;;;;;;2.70;0.80;;;20.90;99.90;;;;;;5058547;28;20076;-86
2022/06/02 10:17:56;;;;;;;2.25;0.80;;;21.90;99.90;;;;;;5054809;28;20496;-86
2022/06/02 10:20:54;;;;;;;2.30;1.00;;;21.80;99.90;;;;;;5059880;28;20384;-86
2022/06/02 10:23:54;;;;;;;3.15;0.95;;;21.50;99.90;;;;;;5054707;28;20084;-86
2022/06/02 10:26:25;;;;;;;4.25;0.90;;;21.10;99.90;;;;;;5022791;28;20043;-86
2022/06/02 10:29:21;;;;;;;3.45;0.95;;;21.20;99.90;;;;;;5054138;28;20095;-86
2022/06/02 10:32:02;;;;;;;2.10;0.63;;;21.10;99.90;;;;;;5053532;28;20080;-87
2022/06/02 10:34:49;;;;;;;2.40;0.90;;;21.40;99.90;;;;;;5037433;28;20095;-87
2022/06/02 10:37:42;;;;;;;3.53;0.88;;;21.80;99.90;;;;;;5054203;28;20037;-85
2022/06/02 10:40:21;;;;;;;2.08;0.70;;;22.20;99.90;;;;;;5054291;28;20056;-86
2022/06/02 10:42:56;;;;;;;1.63;0.90;;;22.30;99.90;;;;;;5054046;28;20045;-87
2022/06/02 10:45:43;;;;;;;3.08;0.90;;;22.00;99.90;;;;;;5054204;28;20041;-86
2022/06/02 10:48:30;;;;;;;4.57;1.10;;;22.20;99.90;;;;;;5042229;28;20076;-86
2022/06/02 10:51:14;;;;;;;;;;;22.70;99.90;;;;;;5053742;28;20083;-86
2022/06/02 10:54:06;;;;;;;4.38;1.05;;;23.10;99.90;;;;;;5053296;28;19917;-86
2022/06/02 10:56:56;;;;;;;2.85;1.00;;;23.20;99.90;;;;;;5053547;28;20045;-87
2022/06/02 10:59:40;;;;;;;2.88;1.10;;;23.30;99.90;;;;;;5053805;28;20087;-86
2022/06/02 11:02:27;;;;;;;2.15;0.77;;;23.60;99.90;;;;;;5036492;28;20086;-85
2022/06/02 11:05:15;;;;;;;2.33;0.82;;;23.70;99.90;;;;;;5053641;28;20171;-86
2022/06/02 11:08:20;;;;;;;2.95;0.90;;;24.00;99.10;;;;;;5052771;28;20040;-85
2022/06/02 11:11:24;;;;;;;2.38;1.10;;;23.50;99.40;;;;;;5036413;28;20064;-87
2022/06/02 11:14:15;;;;;;;3.10;0.90;;;23.10;99.60;;;;;;5053171;28;20076;-86
2022/06/02 11:17:12;;;;;;;2.38;0.80;;;23.00;99.90;;;;;;5053299;28;20033;-87
2022/06/02 11:20:04;;;;;;;2.85;1.25;;;23.00;99.70;;;;;;5053696;28;20072;-86
2022/06/02 11:22:51;;;;;;;1.70;1.10;;;22.80;99.90;;;;;;5036747;28;20045;-87
2022/06/02 11:26:00;;;;;;;1.83;0.80;;;22.50;99.90;;;;;;5036417;28;20056;-86
2022/06/02 11:29:03;;;;;;;2.90;0.85;;;22.40;99.90;;;;;;5027936;28;20049;-86
2022/06/02 11:31:50;;;;;;;2.63;1.00;;;23.00;99.90;;;;;;5036284;28;20036;-86
2022/06/02 11:34:31;;;;;;;1.30;0.88;;;23.50;99.90;;;;;;5036779;28;20386;-86
2022/06/02 11:37:18;;;;;;;3.53;1.00;;;23.60;99.80;;;;;;5036050;28;20094;-86
2022/06/02 11:39:47;;;;;;;3.13;1.02;;;23.30;99.90;;;;;;5036036;28;20090;-86
2022/06/02 11:42:50;;;;;;;1.20;0.77;;;23.50;99.90;;;;;;5053048;28;20496;-86
2022/06/02 11:45:37;;;;;;;2.83;1.13;;;23.90;99.80;;;;;;5052715;28;20041;-86
2022/06/02 11:48:21;;;;;;;1.92;0.88;;;23.70;99.40;;;;;;5052458;28;20203;-84
2022/06/02 11:51:00;;;;;;;2.50;0.80;;;23.60;99.50;;;;;;5052813;28;20051;-86
2022/06/02 11:53:44;;;;;;;2.47;1.10;;;23.70;99.10;;;;;;5036363;28;20481;-85
2022/06/02 11:56:32;;;;;;;1.48;0.80;;;24.10;99.90;;;;;;5057509;28;20063;-86
2022/06/02 11:59:06;;;;;;;2.40;0.80;;;24.30;98.60;;;;;;5057239;28;20448;-87
2022/06/02 12:02:09;;;;;;;1.85;0.80;;;24.10;98.20;;;;;;5035724;28;20048;-86
2022/06/02 12:04:41;;;;;;;2.88;0.88;;;23.60;98.80;;;;;;5052311;28;20607;-87
2022/06/02 12:07:15;;;;;;;2.38;0.82;;;23.50;98.60;;;;;;5053660;28;20124;-86
2022/06/02 12:09:44;;;;;;;1.92;0.80;;;23.40;98.50;;;;;;5052456;28;20045;-86
2022/06/02 12:12:42;;;;;;;1.90;1.00;;;23.20;98.30;;;;;;5035473;28;20168;-86
2022/06/02 12:15:45;;;;;;;1.63;0.90;;;23.50;98.90;;;;;;5053234;28;20048;-86
2022/06/02 12:18:31;;;;;;;2.20;0.90;;;23.70;98.00;;;;;;5052362;28;20436;-87
2022/06/02 12:21:37;;;;;;;2.38;0.88;;;24.10;97.90;;;;;;5052105;28;20043;-86
2022/06/02 12:24:26;;;;;;;3.00;1.00;;;24.20;98.40;;;;;;5034641;28;20048;-86
2022/06/02 12:27:29;;;;;;;2.72;0.98;;;24.10;98.90;;;;;;5058172;28;20060;-86
2022/06/02 12:30:04;;;;;;;1.17;0.60;;;24.30;98.40;;;;;;5052642;28;20043;-86
2022/06/02 12:33:03;;;;;;;1.73;1.35;;;24.10;97.90;;;;;;5051239;28;20505;-86
2022/06/02 12:35:48;;;;;;;2.38;0.80;;;23.40;98.40;;;;;;5035704;28;20066;-86
2022/06/02 12:38:29;;;;;;;1.63;0.90;;;23.50;98.60;;;;;;5051828;28;20037;-87
2022/06/02 12:40:54;;;;;;;3.17;1.05;;;23.70;99.90;;;;;;5035546;28;20491;-86
2022/06/02 12:44:05;;;;;;;1.63;0.68;;;23.80;98.50;;;;;;5051710;28;20048;-86
2022/06/02 12:46:56;;;;;;;1.73;0.77;;;23.70;98.60;;;;;;5051981;28;20480;-86
2022/06/02 12:49:34;;;;;;;1.83;0.90;;;23.60;98.80;;;;;;5035308;28;20120;-85
2022/06/02 12:52:22;;;;;;;2.40;1.00;;;24.00;98.90;;;;;;5051337;28;20044;-86
2022/06/02 12:55:24;;;;;;;2.05;0.80;;;24.20;97.70;;;;;;5051659;28;20049;-86
2022/06/02 12:57:55;;;;;;;2.17;0.80;;;24.40;97.60;;;;;;5051803;28;20393;-86
2022/06/02 13:00:48;;;;;;;1.67;0.75;;;24.20;97.90;;;;;;5034948;28;20277;-85
2022/06/02 13:03:22;;;;;;;1.08;0.70;;;24.40;97.70;;;;;;5034836;28;20083;-86
2022/06/02 13:06:18;;;;;;;2.22;1.15;;;24.90;98.90;;;;;;5051379;28;20049;-86
2022/06/02 13:08:56;;;;;;;2.22;0.75;;;24.90;97.50;;;;;;5034889;28;20045;-85
2022/06/02 13:11:51;;;;;;;2.03;0.90;;;24.70;97.20;;;;;;5051475;28;20497;-86
2022/06/02 13:14:16;;;;;;;2.50;0.90;;;24.60;96.70;;;;;;5048410;28;20041;-87
2022/06/02 13:16:55;;;;;;;2.30;0.70;;;24.60;96.90;;;;;;5038512;28;20094;-87
2022/06/02 13:19:33;;;;;;;3.90;0.90;;;24.70;98.00;;;;;;5055773;28;20377;-86
2022/06/02 13:22:46;;;;;;;6.35;1.05;;;24.70;97.60;;;;;;5038516;28;20079;-86
2022/06/02 13:25:17;;;;;;;4.32;1.00;;;24.80;96.70;;;;;;5038162;28;20064;-85
2022/06/02 13:28:09;;;;;;;1.67;0.93;;;25.00;96.50;;;;;;5041231;28;20075;-86
2022/06/02 13:31:00;;;;;;;2.92;0.90;;;25.10;96.30;;;;;;5041159;28;20087;-86
2022/06/02 13:33:56;;;;;;;2.85;0.90;;;25.30;96.80;;;;;;5038828;28;20049;-86
2022/06/02 13:36:31;;;;;;;1.80;1.00;;;24.80;95.70;;;;;;5054823;28;20040;-86
2022/06/02 13:39:26;;;;;;;3.45;0.90;;;25.00;96.70;;;;;;5054563;28;20283;-87
2022/06/02 13:42:01;;;;;;;2.35;1.55;;;25.20;96.90;;;;;;5054386;28;20041;-85
2022/06/02 13:44:45;;;;;;;2.30;0.80;;;25.10;95.70;;;;;;5037739;28;20037;-86
2022/06/02 13:47:29;;;;;;;2.25;0.80;;;25.30;96.70;;;;;;5038132;28;20044;-87
2022/06/02 13:50:36;;;;;;;2.10;0.70;;;25.30;95.90;;;;;;5054856;28;20040;-87
2022/06/02 13:53:38;;;;;;;2.17;0.80;;;25.30;95.80;;;;;;5019569;28;20041;-85
2022/06/02 13:59:33;;;;;;;2.83;0.73;;;24.60;95.50;;;;;;5055432;28;20102;-86
2022/06/02 14:02:31;;;;;;;2.28;0.85;;;24.00;95.70;;;;;;5054948;28;20037;-86
2022/06/02 14:05:12;;;;;;;2.08;0.70;;;24.00;95.80;;;;;;5054058;28;20037;-86
2022/06/02 14:07:56;;;;;;;4.65;0.80;;;23.80;96.80;;;;;;5038518;28;20489;-85
2022/06/02 14:10:48;;;;;;;3.90;0.90;;;23.70;97.10;;;;;;5057475;28;20056;-85
2022/06/02 14:13:53;;;;;;;2.42;0.70;;;23.80;97.90;;;;;;5057954;28;20048;-86
2022/06/02 14:16:57;;;;;;;1.80;0.93;;;23.60;96.70;;;;;;5059997;28;20048;-86
2022/06/02 14:19:37;;;;;;;1.48;0.80;;;23.30;96.40;;;;;;5058101;28;20037;-86
2022/06/02 14:22:19;;;;;;;3.88;1.02;;;23.30;97.80;;;;;;5041367;28;20076;-86
2022/06/02 14:25:05;;;;;;;3.10;1.02;;;23.30;98.20;;;;;;5045496;28;20083;-86
2022/06/02 14:27:52;;;;;;;2.25;1.20;;;23.50;98.00;;;;;;5060027;28;20042;-86
2022/06/02 14:30:39;;;;;;;1.17;0.88;;;23.50;97.50;;;;;;5045474;28;20041;-85
2022/06/02 14:33:35;;;;;;;3.45;1.10;;;23.40;96.80;;;;;;5040595;28;20044;-87
2022/06/02 14:36:23;;;;;;;2.33;0.73;;;23.00;97.10;;;;;;5056409;28;20094;-86
2022/06/02 14:39:02;;;;;;;2.50;0.80;;;23.00;98.70;;;;;;5040294;28;20044;-86
2022/06/02 14:41:49;;;;;;;3.10;1.08;;;23.10;98.10;;;;;;5040371;28;20584;-87